sensor_id;sensor_type;location;lat;lon;timestamp;pressure;altitude;pressure_sealevel;temperature;humidity
79780;BME280;69258;52.050;10.334;2024-03-08T00:08:24;100227.22;;;20.72;49.22
79780;BME280;69258;52.050;10.334;2024-03-08T00:23:26;100221.53;;;20.81;49.10
79780;BME280;69258;52.050;10.334;2024-03-08T00:38:29;100216.03;;;20.89;48.40
79780;BME280;69258;52.050;10.334;2024-03-08T00:53:31;100200.41;;;20.93;48.73
79780;BME280;69258;52.050;10.334;2024-03-08T01:08:34;100187.47;;;20.96;48.80
79780;BME280;69258;52.050;10.334;2024-03-08T01:23:36;100171.81;;;21.00;48.47
79780;BME280;69258;52.050;10.334;2024-03-08T01:38:38;100145.69;;;21.02;48.04
79780;BME280;69258;52.050;10.334;2024-03-08T01:53:41;100126.75;;;21.03;48.01
79780;BME280;69258;52.050;10.334;2024-03-08T02:08:45;100106.94;;;21.04;47.78
79780;BME280;69258;52.050;10.334;2024-03-08T02:23:48;100090.69;;;21.06;47.53
79780;BME280;69258;52.050;10.334;2024-03-08T02:38:50;100084.09;;;21.08;47.70
79780;BME280;69258;52.050;10.334;2024-03-08T02:53:53;100068.84;;;21.09;47.61
79780;BME280;69258;52.050;10.334;2024-03-08T03:08:56;100062.47;;;21.10;47.08
79780;BME280;69258;52.050;10.334;2024-03-08T03:23:57;100052.38;;;21.12;47.27
79780;BME280;69258;52.050;10.334;2024-03-08T03:39:00;100037.97;;;21.13;47.26
79780;BME280;69258;52.050;10.334;2024-03-08T03:54:04;100025.41;;;21.13;46.97
79780;BME280;69258;52.050;10.334;2024-03-08T04:09:07;100029.75;;;21.15;46.77
79780;BME280;69258;52.050;10.334;2024-03-08T04:24:09;100029.53;;;21.16;46.25
79780;BME280;69258;52.050;10.334;2024-03-08T04:39:11;100018.63;;;21.18;46.51
79780;BME280;69258;52.050;10.334;2024-03-08T04:54:14;100016.78;;;21.18;46.58
79780;BME280;69258;52.050;10.334;2024-03-08T05:09:16;100011.41;;;21.18;46.06
79780;BME280;69258;52.050;10.334;2024-03-08T05:24:18;100010.38;;;21.19;45.49
79780;BME280;69258;52.050;10.334;2024-03-08T05:39:20;99999.47;;;21.21;45.89
79780;BME280;69258;52.050;10.334;2024-03-08T05:54:23;100000.28;;;21.21;45.92
79780;BME280;69258;52.050;10.334;2024-03-08T06:09:27;100000.06;;;21.23;46.01
79780;BME280;69258;52.050;10.334;2024-03-08T06:24:29;100004.63;;;21.22;46.28
79780;BME280;69258;52.050;10.334;2024-03-08T06:39:32;99994.94;;;21.21;45.77
79780;BME280;69258;52.050;10.334;2024-03-08T06:54:35;100002.31;;;21.19;46.36
79780;BME280;69258;52.050;10.334;2024-03-08T07:09:38;100000.47;;;21.20;46.11
79780;BME280;69258;52.050;10.334;2024-03-08T07:24:41;99993.69;;;21.17;46.54
79780;BME280;69258;52.050;10.334;2024-03-08T07:39:43;99980.88;;;21.19;46.26
79780;BME280;69258;52.050;10.334;2024-03-08T07:54:46;99969.16;;;21.20;46.82
79780;BME280;69258;52.050;10.334;2024-03-08T08:09:48;99961.75;;;21.22;47.41
79780;BME280;69258;52.050;10.334;2024-03-08T08:24:49;99949.97;;;21.23;46.45
79780;BME280;69258;52.050;10.334;2024-03-08T08:39:52;99944.84;;;21.22;47.11
79780;BME280;69258;52.050;10.334;2024-03-08T08:54:54;99940.09;;;21.24;46.80
79780;BME280;69258;52.050;10.334;2024-03-08T09:09:55;99928.34;;;21.25;46.30
79780;BME280;69258;52.050;10.334;2024-03-08T09:24:57;99902.78;;;21.29;46.74
79780;BME280;69258;52.050;10.334;2024-03-08T09:40:00;99868.38;;;21.32;46.96
79780;BME280;69258;52.050;10.334;2024-03-08T09:55:06;99849.81;;;21.37;47.08
79780;BME280;69258;52.050;10.334;2024-03-08T10:10:08;99835.78;;;21.42;47.31
79780;BME280;69258;52.050;10.334;2024-03-08T10:25:11;99808.38;;;21.46;47.05
79780;BME280;69258;52.050;10.334;2024-03-08T10:40:16;99788.16;;;21.50;47.04
79780;BME280;69258;52.050;10.334;2024-03-08T10:55:19;99778.47;;;21.56;47.21
79780;BME280;69258;52.050;10.334;2024-03-08T11:10:22;99753.69;;;21.60;47.58
79780;BME280;69258;52.050;10.334;2024-03-08T11:25:38;99738.00;;;21.64;47.56
79780;BME280;69258;52.050;10.334;2024-03-08T11:40:41;99721.50;;;21.67;47.56
79780;BME280;69258;52.050;10.334;2024-03-08T11:55:43;99692.41;;;21.71;47.41
79780;BME280;69258;52.050;10.334;2024-03-08T12:10:45;99678.56;;;21.74;48.25
79780;BME280;69258;52.050;10.334;2024-03-08T12:25:49;99650.50;;;21.76;48.21
79780;BME280;69258;52.050;10.334;2024-03-08T12:40:55;99624.91;;;21.80;48.71
79780;BME280;69258;52.050;10.334;2024-03-08T12:55:58;99624.69;;;21.82;48.55
79780;BME280;69258;52.050;10.334;2024-03-08T13:10:59;99597.63;;;21.83;48.08
79780;BME280;69258;52.050;10.334;2024-03-08T13:26:02;99600.94;;;21.85;48.17
79780;BME280;69258;52.050;10.334;2024-03-08T13:41:06;99567.72;;;21.86;48.11
79780;BME280;69258;52.050;10.334;2024-03-08T13:56:09;99562.94;;;21.88;48.62
79780;BME280;69258;52.050;10.334;2024-03-08T14:11:12;99543.16;;;21.89;48.81
79780;BME280;69258;52.050;10.334;2024-03-08T14:26:15;99520.66;;;21.90;48.29
79780;BME280;69258;52.050;10.334;2024-03-08T14:41:18;99508.91;;;21.91;48.48
79780;BME280;69258;52.050;10.334;2024-03-08T14:56:21;99493.63;;;21.92;48.63
79780;BME280;69258;52.050;10.334;2024-03-08T15:11:24;99468.84;;;21.90;48.30
79780;BME280;69258;52.050;10.334;2024-03-08T15:26:28;99442.03;;;21.90;48.56
79780;BME280;69258;52.050;10.334;2024-03-08T15:41:31;99440.59;;;21.94;48.57
79780;BME280;69258;52.050;10.334;2024-03-08T15:56:34;99419.53;;;21.91;49.06
79780;BME280;69258;52.050;10.334;2024-03-08T16:11:37;99414.38;;;21.89;49.19
79780;BME280;69258;52.050;10.334;2024-03-08T16:26:40;99408.41;;;21.87;49.25
79780;BME280;69258;52.050;10.334;2024-03-08T16:41:42;99398.13;;;21.84;48.54
79780;BME280;69258;52.050;10.334;2024-03-08T16:56:45;99399.16;;;21.83;48.62
79780;BME280;69258;52.050;10.334;2024-03-08T17:11:47;99391.09;;;21.83;48.73
79780;BME280;69258;52.050;10.334;2024-03-08T17:26:51;99370.09;;;21.80;48.88
79780;BME280;69258;52.050;10.334;2024-03-08T17:41:54;99363.06;;;21.79;48.48
79780;BME280;69258;52.050;10.334;2024-03-08T17:56:55;99348.25;;;21.77;48.61
79780;BME280;69258;52.050;10.334;2024-03-08T18:11:57;99338.78;;;21.74;48.32
79780;BME280;69258;52.050;10.334;2024-03-08T18:27:01;99335.50;;;21.72;48.30
79780;BME280;69258;52.050;10.334;2024-03-08T18:42:04;99315.09;;;21.71;48.72
79780;BME280;69258;52.050;10.334;2024-03-08T18:57:07;99315.31;;;21.70;48.60
79780;BME280;69258;52.050;10.334;2024-03-08T19:12:09;99295.94;;;21.68;48.97
79780;BME280;69258;52.050;10.334;2024-03-08T19:27:11;99284.41;;;21.67;48.94
79780;BME280;69258;52.050;10.334;2024-03-08T19:42:14;99272.84;;;21.67;49.42
79780;BME280;69258;52.050;10.334;2024-03-08T19:57:17;99257.78;;;21.66;48.65
79780;BME280;69258;52.050;10.334;2024-03-08T20:12:19;99254.00;;;21.73;48.73
79780;BME280;69258;52.050;10.334;2024-03-08T20:27:22;99258.72;;;21.78;49.20
79780;BME280;69258;52.050;10.334;2024-03-08T20:42:25;99247.38;;;21.76;48.12
79780;BME280;69258;52.050;10.334;2024-03-08T20:57:27;99222.84;;;21.72;48.90
79780;BME280;69258;52.050;10.334;2024-03-08T21:12:32;99183.75;;;21.65;48.26
79780;BME280;69258;52.050;10.334;2024-03-08T21:27:36;99162.84;;;21.55;48.18
79780;BME280;69258;52.050;10.334;2024-03-08T21:42:41;99152.25;;;21.42;48.48
79780;BME280;69258;52.050;10.334;2024-03-08T21:57:43;99157.97;;;21.27;48.32
79780;BME280;69258;52.050;10.334;2024-03-08T22:12:49;99124.22;;;21.20;48.42
79780;BME280;69258;52.050;10.334;2024-03-08T22:27:52;99123.47;;;21.12;48.39
79780;BME280;69258;52.050;10.334;2024-03-08T22:42:54;99115.13;;;21.02;48.17
79780;BME280;69258;52.050;10.334;2024-03-08T22:57:56;99097.47;;;20.95;48.33
79780;BME280;69258;52.050;10.334;2024-03-08T23:12:59;99082.50;;;20.87;48.40
79780;BME280;69258;52.050;10.334;2024-03-08T23:28:02;99087.69;;;20.82;48.02
79780;BME280;69258;52.050;10.334;2024-03-08T23:43:05;99098.69;;;20.74;47.88
79780;BME280;69258;52.050;10.334;2024-03-08T23:58:09;99087.19;;;20.67;47.78
